sensor_id;sensor_type;location;lat;lon;timestamp;P1;durP1;ratioP1;P2;durP2;ratioP2
32319;SDS011;19080;51.750;5.888;2022-10-16T00:01:53;5.07;;;3.53;;
32319;SDS011;19080;51.750;5.888;2022-10-16T00:04:19;11.70;;;4.53;;
32319;SDS011;19080;51.750;5.888;2022-10-16T00:06:45;6.95;;;4.07;;
32319;SDS011;19080;51.750;5.888;2022-10-16T00:09:12;10.32;;;5.32;;
32319;SDS011;19080;51.750;5.888;2022-10-16T00:11:39;5.82;;;4.43;;
32319;SDS011;19080;51.750;5.888;2022-10-16T00:14:08;8.35;;;4.57;;
32319;SDS011;19080;51.750;5.888;2022-10-16T00:16:34;8.40;;;5.22;;
32319;SDS011;19080;51.750;5.888;2022-10-16T00:19:01;9.20;;;4.90;;
32319;SDS011;19080;51.750;5.888;2022-10-16T00:21:28;6.63;;;4.47;;
32319;SDS011;19080;51.750;5.888;2022-10-16T00:23:56;9.70;;;4.65;;
32319;SDS011;19080;51.750;5.888;2022-10-16T00:26:25;5.72;;;4.75;;
32319;SDS011;19080;51.750;5.888;2022-10-16T00:28:52;5.70;;;4.28;;
32319;SDS011;19080;51.750;5.888;2022-10-16T00:31:19;9.10;;;4.47;;
32319;SDS011;19080;51.750;5.888;2022-10-16T00:33:46;5.15;;;3.97;;
32319;SDS011;19080;51.750;5.888;2022-10-16T00:36:13;5.72;;;3.70;;
32319;SDS011;19080;51.750;5.888;2022-10-16T00:38:40;5.53;;;4.68;;
32319;SDS011;19080;51.750;5.888;2022-10-16T00:41:07;6.97;;;3.67;;
32319;SDS011;19080;51.750;5.888;2022-10-16T00:46:20;7.97;;;3.45;;
32319;SDS011;19080;51.750;5.888;2022-10-16T00:49:00;8.27;;;4.55;;
32319;SDS011;19080;51.750;5.888;2022-10-16T00:51:30;4.43;;;4.03;;
32319;SDS011;19080;51.750;5.888;2022-10-16T00:53:57;5.80;;;3.72;;
32319;SDS011;19080;51.750;5.888;2022-10-16T00:56:24;4.10;;;3.30;;
32319;SDS011;19080;51.750;5.888;2022-10-16T00:58:50;4.20;;;3.80;;
32319;SDS011;19080;51.750;5.888;2022-10-16T01:01:16;4.93;;;3.60;;
32319;SDS011;19080;51.750;5.888;2022-10-16T01:03:43;7.30;;;3.72;;
32319;SDS011;19080;51.750;5.888;2022-10-16T01:06:21;4.70;;;3.65;;
32319;SDS011;19080;51.750;5.888;2022-10-16T01:14:37;4.88;;;3.50;;
32319;SDS011;19080;51.750;5.888;2022-10-16T01:17:12;6.22;;;3.60;;
32319;SDS011;19080;51.750;5.888;2022-10-16T01:24:40;4.07;;;3.58;;
32319;SDS011;19080;51.750;5.888;2022-10-16T01:32:22;5.63;;;4.03;;
32319;SDS011;19080;51.750;5.888;2022-10-16T01:34:50;4.53;;;2.78;;
32319;SDS011;19080;51.750;5.888;2022-10-16T01:37:21;6.10;;;3.28;;
32319;SDS011;19080;51.750;5.888;2022-10-16T01:39:49;5.60;;;3.35;;
32319;SDS011;19080;51.750;5.888;2022-10-16T01:42:19;3.90;;;3.13;;
32319;SDS011;19080;51.750;5.888;2022-10-16T01:44:47;3.20;;;2.90;;
32319;SDS011;19080;51.750;5.888;2022-10-16T01:47:14;6.18;;;3.20;;
32319;SDS011;19080;51.750;5.888;2022-10-16T01:49:41;4.45;;;3.00;;
32319;SDS011;19080;51.750;5.888;2022-10-16T01:52:10;3.78;;;2.65;;
32319;SDS011;19080;51.750;5.888;2022-10-16T01:54:37;3.28;;;2.97;;
32319;SDS011;19080;51.750;5.888;2022-10-16T01:57:06;4.10;;;2.60;;
32319;SDS011;19080;51.750;5.888;2022-10-16T01:59:38;2.80;;;2.42;;
32319;SDS011;19080;51.750;5.888;2022-10-16T02:02:06;3.95;;;3.55;;
32319;SDS011;19080;51.750;5.888;2022-10-16T02:04:48;5.07;;;2.50;;
32319;SDS011;19080;51.750;5.888;2022-10-16T02:07:15;6.40;;;2.63;;
32319;SDS011;19080;51.750;5.888;2022-10-16T02:09:42;4.47;;;2.40;;
32319;SDS011;19080;51.750;5.888;2022-10-16T02:12:10;2.95;;;2.33;;
32319;SDS011;19080;51.750;5.888;2022-10-16T02:14:38;5.43;;;2.83;;
32319;SDS011;19080;51.750;5.888;2022-10-16T02:17:15;4.05;;;2.70;;
32319;SDS011;19080;51.750;5.888;2022-10-16T02:19:42;6.03;;;2.50;;
32319;SDS011;19080;51.750;5.888;2022-10-16T02:22:09;5.18;;;2.28;;
32319;SDS011;19080;51.750;5.888;2022-10-16T02:27:13;4.30;;;2.55;;
32319;SDS011;19080;51.750;5.888;2022-10-16T02:29:44;3.33;;;2.20;;
32319;SDS011;19080;51.750;5.888;2022-10-16T02:32:15;2.25;;;2.05;;
32319;SDS011;19080;51.750;5.888;2022-10-16T02:34:42;3.95;;;2.38;;
32319;SDS011;19080;51.750;5.888;2022-10-16T02:37:09;2.35;;;1.83;;
32319;SDS011;19080;51.750;5.888;2022-10-16T02:39:36;2.58;;;1.90;;
32319;SDS011;19080;51.750;5.888;2022-10-16T02:42:03;2.67;;;2.00;;
32319;SDS011;19080;51.750;5.888;2022-10-16T02:44:30;6.47;;;2.03;;
32319;SDS011;19080;51.750;5.888;2022-10-16T02:46:57;6.63;;;2.30;;
32319;SDS011;19080;51.750;5.888;2022-10-16T02:49:23;4.40;;;1.70;;
32319;SDS011;19080;51.750;5.888;2022-10-16T02:51:49;2.67;;;1.95;;
32319;SDS011;19080;51.750;5.888;2022-10-16T02:54:16;3.20;;;2.03;;
32319;SDS011;19080;51.750;5.888;2022-10-16T02:56:42;3.75;;;2.35;;
32319;SDS011;19080;51.750;5.888;2022-10-16T02:59:09;3.72;;;2.20;;
32319;SDS011;19080;51.750;5.888;2022-10-16T03:01:35;2.63;;;2.15;;
32319;SDS011;19080;51.750;5.888;2022-10-16T03:04:02;2.50;;;2.10;;
32319;SDS011;19080;51.750;5.888;2022-10-16T03:06:28;3.88;;;1.75;;
32319;SDS011;19080;51.750;5.888;2022-10-16T03:08:55;2.15;;;1.80;;
32319;SDS011;19080;51.750;5.888;2022-10-16T03:11:21;4.10;;;2.05;;
32319;SDS011;19080;51.750;5.888;2022-10-16T03:13:48;1.90;;;1.70;;
32319;SDS011;19080;51.750;5.888;2022-10-16T03:16:14;2.63;;;2.10;;
32319;SDS011;19080;51.750;5.888;2022-10-16T03:18:41;2.45;;;2.10;;
32319;SDS011;19080;51.750;5.888;2022-10-16T03:21:07;3.78;;;1.90;;
32319;SDS011;19080;51.750;5.888;2022-10-16T03:23:33;5.57;;;2.22;;
32319;SDS011;19080;51.750;5.888;2022-10-16T03:26:00;2.53;;;1.92;;
32319;SDS011;19080;51.750;5.888;2022-10-16T03:28:26;2.95;;;2.08;;
32319;SDS011;19080;51.750;5.888;2022-10-16T03:30:53;4.28;;;2.10;;
32319;SDS011;19080;51.750;5.888;2022-10-16T03:33:19;4.47;;;2.30;;
32319;SDS011;19080;51.750;5.888;2022-10-16T03:35:50;3.85;;;2.03;;
32319;SDS011;19080;51.750;5.888;2022-10-16T03:38:17;5.85;;;1.88;;
32319;SDS011;19080;51.750;5.888;2022-10-16T03:40:43;5.15;;;2.15;;
32319;SDS011;19080;51.750;5.888;2022-10-16T03:43:09;3.67;;;2.17;;
32319;SDS011;19080;51.750;5.888;2022-10-16T03:45:36;2.45;;;2.00;;
32319;SDS011;19080;51.750;5.888;2022-10-16T03:48:03;2.30;;;1.90;;
32319;SDS011;19080;51.750;5.888;2022-10-16T03:50:29;2.75;;;1.85;;
32319;SDS011;19080;51.750;5.888;2022-10-16T03:52:56;5.28;;;2.20;;
32319;SDS011;19080;51.750;5.888;2022-10-16T03:55:22;2.53;;;2.13;;
32319;SDS011;19080;51.750;5.888;2022-10-16T03:57:49;1.80;;;1.65;;
32319;SDS011;19080;51.750;5.888;2022-10-16T04:00:15;3.25;;;2.15;;
32319;SDS011;19080;51.750;5.888;2022-10-16T04:02:42;2.72;;;2.45;;
32319;SDS011;19080;51.750;5.888;2022-10-16T04:05:08;2.30;;;2.10;;
32319;SDS011;19080;51.750;5.888;2022-10-16T04:07:34;5.70;;;2.08;;
32319;SDS011;19080;51.750;5.888;2022-10-16T04:10:01;2.95;;;2.05;;
32319;SDS011;19080;51.750;5.888;2022-10-16T04:12:27;3.17;;;2.20;;
32319;SDS011;19080;51.750;5.888;2022-10-16T04:14:55;3.08;;;2.15;;
32319;SDS011;19080;51.750;5.888;2022-10-16T04:17:21;3.70;;;2.03;;
32319;SDS011;19080;51.750;5.888;2022-10-16T04:19:48;4.70;;;2.00;;
32319;SDS011;19080;51.750;5.888;2022-10-16T04:22:14;2.75;;;2.00;;
32319;SDS011;19080;51.750;5.888;2022-10-16T04:24:40;5.22;;;2.53;;
32319;SDS011;19080;51.750;5.888;2022-10-16T04:27:07;2.45;;;2.13;;
32319;SDS011;19080;51.750;5.888;2022-10-16T04:29:33;2.63;;;2.30;;
32319;SDS011;19080;51.750;5.888;2022-10-16T04:32:01;2.97;;;2.08;;
32319;SDS011;19080;51.750;5.888;2022-10-16T04:34:27;3.80;;;2.38;;
32319;SDS011;19080;51.750;5.888;2022-10-16T04:36:53;3.30;;;1.90;;
32319;SDS011;19080;51.750;5.888;2022-10-16T04:39:20;2.35;;;2.00;;
32319;SDS011;19080;51.750;5.888;2022-10-16T04:41:46;3.00;;;2.00;;
32319;SDS011;19080;51.750;5.888;2022-10-16T04:44:13;3.05;;;1.75;;
32319;SDS011;19080;51.750;5.888;2022-10-16T04:46:39;3.97;;;2.15;;
32319;SDS011;19080;51.750;5.888;2022-10-16T04:49:05;2.40;;;2.20;;
32319;SDS011;19080;51.750;5.888;2022-10-16T04:51:32;4.60;;;2.00;;
32319;SDS011;19080;51.750;5.888;2022-10-16T04:53:59;3.13;;;2.10;;
32319;SDS011;19080;51.750;5.888;2022-10-16T04:56:25;2.58;;;2.28;;
32319;SDS011;19080;51.750;5.888;2022-10-16T04:58:51;3.40;;;2.05;;
32319;SDS011;19080;51.750;5.888;2022-10-16T05:01:18;4.60;;;1.95;;
32319;SDS011;19080;51.750;5.888;2022-10-16T05:03:44;3.90;;;2.50;;
32319;SDS011;19080;51.750;5.888;2022-10-16T05:06:11;3.92;;;1.90;;
32319;SDS011;19080;51.750;5.888;2022-10-16T05:08:37;6.68;;;2.22;;
32319;SDS011;19080;51.750;5.888;2022-10-16T05:11:03;3.63;;;1.90;;
32319;SDS011;19080;51.750;5.888;2022-10-16T05:13:30;3.85;;;1.92;;
32319;SDS011;19080;51.750;5.888;2022-10-16T05:15:56;4.18;;;1.60;;
32319;SDS011;19080;51.750;5.888;2022-10-16T05:18:23;2.25;;;2.05;;
32319;SDS011;19080;51.750;5.888;2022-10-16T05:20:49;4.13;;;2.15;;
32319;SDS011;19080;51.750;5.888;2022-10-16T05:23:16;3.45;;;1.65;;
32319;SDS011;19080;51.750;5.888;2022-10-16T05:25:42;4.25;;;2.10;;
32319;SDS011;19080;51.750;5.888;2022-10-16T05:28:08;3.90;;;1.92;;
32319;SDS011;19080;51.750;5.888;2022-10-16T05:30:36;2.92;;;1.90;;
32319;SDS011;19080;51.750;5.888;2022-10-16T05:33:03;3.42;;;2.15;;
32319;SDS011;19080;51.750;5.888;2022-10-16T05:35:29;3.60;;;1.88;;
32319;SDS011;19080;51.750;5.888;2022-10-16T05:37:55;3.90;;;1.92;;
32319;SDS011;19080;51.750;5.888;2022-10-16T05:40:22;4.72;;;2.00;;
32319;SDS011;19080;51.750;5.888;2022-10-16T05:42:48;2.80;;;2.00;;
32319;SDS011;19080;51.750;5.888;2022-10-16T05:45:14;5.60;;;2.47;;
32319;SDS011;19080;51.750;5.888;2022-10-16T05:47:41;5.35;;;2.30;;
32319;SDS011;19080;51.750;5.888;2022-10-16T05:50:07;3.83;;;2.33;;
32319;SDS011;19080;51.750;5.888;2022-10-16T05:52:34;3.38;;;1.80;;
32319;SDS011;19080;51.750;5.888;2022-10-16T05:55:00;4.07;;;2.10;;
32319;SDS011;19080;51.750;5.888;2022-10-16T05:57:27;2.63;;;1.90;;
32319;SDS011;19080;51.750;5.888;2022-10-16T05:59:54;2.22;;;1.52;;
32319;SDS011;19080;51.750;5.888;2022-10-16T06:02:20;2.88;;;2.40;;
32319;SDS011;19080;51.750;5.888;2022-10-16T06:04:46;3.13;;;2.28;;
32319;SDS011;19080;51.750;5.888;2022-10-16T06:07:13;3.20;;;1.80;;
32319;SDS011;19080;51.750;5.888;2022-10-16T06:09:39;2.40;;;2.00;;
32319;SDS011;19080;51.750;5.888;2022-10-16T06:12:06;2.70;;;1.85;;
32319;SDS011;19080;51.750;5.888;2022-10-16T06:14:32;4.13;;;2.13;;
32319;SDS011;19080;51.750;5.888;2022-10-16T06:16:59;2.28;;;1.80;;
32319;SDS011;19080;51.750;5.888;2022-10-16T06:19:25;3.25;;;1.95;;
32319;SDS011;19080;51.750;5.888;2022-10-16T06:21:52;3.60;;;2.10;;
32319;SDS011;19080;51.750;5.888;2022-10-16T06:24:18;3.67;;;2.22;;
32319;SDS011;19080;51.750;5.888;2022-10-16T06:26:44;2.20;;;2.00;;
32319;SDS011;19080;51.750;5.888;2022-10-16T06:29:11;2.92;;;1.73;;
32319;SDS011;19080;51.750;5.888;2022-10-16T06:31:37;4.57;;;2.20;;
32319;SDS011;19080;51.750;5.888;2022-10-16T06:34:04;3.40;;;2.25;;
32319;SDS011;19080;51.750;5.888;2022-10-16T06:36:35;4.93;;;2.45;;
32319;SDS011;19080;51.750;5.888;2022-10-16T06:39:01;4.45;;;2.90;;
32319;SDS011;19080;51.750;5.888;2022-10-16T06:41:28;2.45;;;1.95;;
32319;SDS011;19080;51.750;5.888;2022-10-16T06:43:55;5.53;;;2.47;;
32319;SDS011;19080;51.750;5.888;2022-10-16T06:46:23;2.67;;;2.03;;
32319;SDS011;19080;51.750;5.888;2022-10-16T06:48:49;3.63;;;2.33;;
32319;SDS011;19080;51.750;5.888;2022-10-16T06:51:19;2.88;;;2.42;;
32319;SDS011;19080;51.750;5.888;2022-10-16T06:53:51;5.68;;;2.00;;
32319;SDS011;19080;51.750;5.888;2022-10-16T06:56:33;5.20;;;2.40;;
32319;SDS011;19080;51.750;5.888;2022-10-16T06:59:00;4.30;;;2.83;;
32319;SDS011;19080;51.750;5.888;2022-10-16T07:01:26;5.45;;;2.97;;
32319;SDS011;19080;51.750;5.888;2022-10-16T07:03:53;4.78;;;2.78;;
32319;SDS011;19080;51.750;5.888;2022-10-16T07:06:20;4.05;;;2.45;;
32319;SDS011;19080;51.750;5.888;2022-10-16T07:08:47;5.15;;;2.80;;
32319;SDS011;19080;51.750;5.888;2022-10-16T07:11:14;3.90;;;1.83;;
32319;SDS011;19080;51.750;5.888;2022-10-16T07:13:42;4.05;;;2.40;;
32319;SDS011;19080;51.750;5.888;2022-10-16T07:16:09;3.22;;;1.80;;
32319;SDS011;19080;51.750;5.888;2022-10-16T07:18:36;4.45;;;1.75;;
32319;SDS011;19080;51.750;5.888;2022-10-16T07:23:31;2.40;;;1.90;;
32319;SDS011;19080;51.750;5.888;2022-10-16T07:25:57;3.55;;;1.80;;
32319;SDS011;19080;51.750;5.888;2022-10-16T07:28:24;3.85;;;1.40;;
32319;SDS011;19080;51.750;5.888;2022-10-16T07:30:50;3.58;;;1.50;;
32319;SDS011;19080;51.750;5.888;2022-10-16T07:33:17;3.70;;;1.30;;
32319;SDS011;19080;51.750;5.888;2022-10-16T07:35:53;3.05;;;1.52;;
32319;SDS011;19080;51.750;5.888;2022-10-16T07:38:20;4.72;;;1.50;;
32319;SDS011;19080;51.750;5.888;2022-10-16T07:40:47;4.97;;;1.42;;
32319;SDS011;19080;51.750;5.888;2022-10-16T07:43:14;2.67;;;1.65;;
32319;SDS011;19080;51.750;5.888;2022-10-16T07:45:47;5.53;;;2.00;;
32319;SDS011;19080;51.750;5.888;2022-10-16T07:48:21;3.90;;;1.60;;
32319;SDS011;19080;51.750;5.888;2022-10-16T07:50:49;3.67;;;1.63;;
32319;SDS011;19080;51.750;5.888;2022-10-16T07:53:15;6.90;;;1.60;;
32319;SDS011;19080;51.750;5.888;2022-10-16T07:55:42;4.63;;;1.40;;
32319;SDS011;19080;51.750;5.888;2022-10-16T07:58:08;5.50;;;1.92;;
32319;SDS011;19080;51.750;5.888;2022-10-16T08:00:35;3.13;;;1.40;;
32319;SDS011;19080;51.750;5.888;2022-10-16T08:03:02;2.85;;;1.25;;
32319;SDS011;19080;51.750;5.888;2022-10-16T08:05:29;4.00;;;1.48;;
32319;SDS011;19080;51.750;5.888;2022-10-16T08:07:56;10.43;;;1.90;;
32319;SDS011;19080;51.750;5.888;2022-10-16T08:10:23;3.83;;;1.80;;
32319;SDS011;19080;51.750;5.888;2022-10-16T08:12:51;4.38;;;1.90;;
32319;SDS011;19080;51.750;5.888;2022-10-16T08:15:17;2.53;;;1.70;;
32319;SDS011;19080;51.750;5.888;2022-10-16T08:17:44;5.47;;;1.55;;
32319;SDS011;19080;51.750;5.888;2022-10-16T08:20:10;3.53;;;1.38;;
32319;SDS011;19080;51.750;5.888;2022-10-16T08:22:37;5.03;;;2.05;;
32319;SDS011;19080;51.750;5.888;2022-10-16T08:25:03;3.42;;;1.67;;
32319;SDS011;19080;51.750;5.888;2022-10-16T08:27:33;5.20;;;1.55;;
32319;SDS011;19080;51.750;5.888;2022-10-16T08:29:59;3.20;;;1.60;;
32319;SDS011;19080;51.750;5.888;2022-10-16T08:32:25;4.25;;;2.03;;
32319;SDS011;19080;51.750;5.888;2022-10-16T08:34:53;3.72;;;1.48;;
32319;SDS011;19080;51.750;5.888;2022-10-16T08:37:20;6.78;;;1.50;;
32319;SDS011;19080;51.750;5.888;2022-10-16T08:39:46;5.60;;;1.50;;
32319;SDS011;19080;51.750;5.888;2022-10-16T08:50:17;9.52;;;1.63;;
32319;SDS011;19080;51.750;5.888;2022-10-16T08:52:45;3.10;;;1.70;;
32319;SDS011;19080;51.750;5.888;2022-10-16T08:55:17;4.30;;;1.40;;
32319;SDS011;19080;51.750;5.888;2022-10-16T08:57:47;2.85;;;1.35;;
32319;SDS011;19080;51.750;5.888;2022-10-16T09:00:13;10.07;;;1.70;;
32319;SDS011;19080;51.750;5.888;2022-10-16T09:02:43;3.40;;;1.30;;
32319;SDS011;19080;51.750;5.888;2022-10-16T09:05:17;3.08;;;1.45;;
32319;SDS011;19080;51.750;5.888;2022-10-16T09:13:09;4.55;;;1.35;;
32319;SDS011;19080;51.750;5.888;2022-10-16T09:15:44;6.00;;;1.67;;
32319;SDS011;19080;51.750;5.888;2022-10-16T09:18:15;8.45;;;1.73;;
32319;SDS011;19080;51.750;5.888;2022-10-16T09:20:51;5.57;;;1.50;;
32319;SDS011;19080;51.750;5.888;2022-10-16T09:23:25;4.10;;;1.40;;
32319;SDS011;19080;51.750;5.888;2022-10-16T09:25:51;5.00;;;1.75;;
32319;SDS011;19080;51.750;5.888;2022-10-16T09:28:18;4.05;;;1.50;;
32319;SDS011;19080;51.750;5.888;2022-10-16T09:30:45;6.40;;;1.60;;
32319;SDS011;19080;51.750;5.888;2022-10-16T09:33:12;5.13;;;1.95;;
32319;SDS011;19080;51.750;5.888;2022-10-16T09:35:40;5.57;;;1.40;;
32319;SDS011;19080;51.750;5.888;2022-10-16T09:38:08;7.45;;;1.80;;
32319;SDS011;19080;51.750;5.888;2022-10-16T09:40:35;6.63;;;1.90;;
32319;SDS011;19080;51.750;5.888;2022-10-16T09:45:57;5.95;;;1.60;;
32319;SDS011;19080;51.750;5.888;2022-10-16T09:48:25;7.53;;;1.90;;
32319;SDS011;19080;51.750;5.888;2022-10-16T09:50:56;6.38;;;1.50;;
32319;SDS011;19080;51.750;5.888;2022-10-16T09:53:23;6.32;;;1.73;;
32319;SDS011;19080;51.750;5.888;2022-10-16T09:55:49;6.68;;;1.58;;
32319;SDS011;19080;51.750;5.888;2022-10-16T09:58:16;6.63;;;1.90;;
32319;SDS011;19080;51.750;5.888;2022-10-16T10:00:48;6.70;;;2.35;;
32319;SDS011;19080;51.750;5.888;2022-10-16T10:03:21;5.78;;;1.75;;
32319;SDS011;19080;51.750;5.888;2022-10-16T10:05:54;7.28;;;1.92;;
32319;SDS011;19080;51.750;5.888;2022-10-16T10:08:26;7.38;;;1.90;;
32319;SDS011;19080;51.750;5.888;2022-10-16T10:10:52;6.10;;;2.00;;
32319;SDS011;19080;51.750;5.888;2022-10-16T10:13:21;9.10;;;1.95;;
32319;SDS011;19080;51.750;5.888;2022-10-16T10:15:48;7.50;;;1.80;;
32319;SDS011;19080;51.750;5.888;2022-10-16T10:18:16;7.55;;;2.03;;
32319;SDS011;19080;51.750;5.888;2022-10-16T10:20:43;9.32;;;2.17;;
32319;SDS011;19080;51.750;5.888;2022-10-16T10:23:20;8.18;;;1.67;;
32319;SDS011;19080;51.750;5.888;2022-10-16T10:25:49;9.05;;;2.67;;
32319;SDS011;19080;51.750;5.888;2022-10-16T10:28:25;8.50;;;2.38;;
32319;SDS011;19080;51.750;5.888;2022-10-16T10:33:47;9.05;;;2.30;;
32319;SDS011;19080;51.750;5.888;2022-10-16T10:39:06;7.80;;;2.10;;
32319;SDS011;19080;51.750;5.888;2022-10-16T10:41:38;6.10;;;2.30;;
32319;SDS011;19080;51.750;5.888;2022-10-16T10:46:41;9.05;;;1.85;;
32319;SDS011;19080;51.750;5.888;2022-10-16T10:54:18;6.30;;;1.90;;
32319;SDS011;19080;51.750;5.888;2022-10-16T10:56:49;9.55;;;2.45;;
32319;SDS011;19080;51.750;5.888;2022-10-16T10:59:19;5.97;;;1.80;;
32319;SDS011;19080;51.750;5.888;2022-10-16T11:02:03;7.15;;;1.80;;
32319;SDS011;19080;51.750;5.888;2022-10-16T11:04:35;7.82;;;2.03;;
32319;SDS011;19080;51.750;5.888;2022-10-16T11:07:04;7.05;;;2.15;;
32319;SDS011;19080;51.750;5.888;2022-10-16T11:09:39;14.77;;;2.08;;
32319;SDS011;19080;51.750;5.888;2022-10-16T11:12:18;11.70;;;2.17;;
32319;SDS011;19080;51.750;5.888;2022-10-16T11:14:49;7.03;;;1.88;;
32319;SDS011;19080;51.750;5.888;2022-10-16T11:17:20;8.68;;;1.92;;
32319;SDS011;19080;51.750;5.888;2022-10-16T11:19:49;9.43;;;2.97;;
32319;SDS011;19080;51.750;5.888;2022-10-16T11:22:19;8.10;;;3.05;;
32319;SDS011;19080;51.750;5.888;2022-10-16T11:24:55;6.43;;;2.00;;
32319;SDS011;19080;51.750;5.888;2022-10-16T11:27:34;8.60;;;2.50;;
32319;SDS011;19080;51.750;5.888;2022-10-16T11:30:02;9.38;;;2.40;;
32319;SDS011;19080;51.750;5.888;2022-10-16T11:32:35;13.77;;;1.73;;
32319;SDS011;19080;51.750;5.888;2022-10-16T11:35:15;10.77;;;2.50;;
32319;SDS011;19080;51.750;5.888;2022-10-16T11:37:44;11.55;;;2.88;;
32319;SDS011;19080;51.750;5.888;2022-10-16T11:40:16;10.10;;;2.55;;
32319;SDS011;19080;51.750;5.888;2022-10-16T11:42:46;15.57;;;2.60;;
32319;SDS011;19080;51.750;5.888;2022-10-16T11:45:26;13.48;;;2.72;;
32319;SDS011;19080;51.750;5.888;2022-10-16T11:47:58;12.38;;;3.47;;
32319;SDS011;19080;51.750;5.888;2022-10-16T11:50:40;8.65;;;3.22;;
32319;SDS011;19080;51.750;5.888;2022-10-16T11:55:39;10.45;;;2.67;;
32319;SDS011;19080;51.750;5.888;2022-10-16T12:00:44;8.73;;;2.30;;
32319;SDS011;19080;51.750;5.888;2022-10-16T12:08:27;7.28;;;2.05;;
32319;SDS011;19080;51.750;5.888;2022-10-16T12:11:05;11.10;;;2.83;;
32319;SDS011;19080;51.750;5.888;2022-10-16T12:20:57;6.32;;;1.83;;
32319;SDS011;19080;51.750;5.888;2022-10-16T12:23:31;8.45;;;2.20;;
32319;SDS011;19080;51.750;5.888;2022-10-16T12:25:59;5.75;;;1.73;;
32319;SDS011;19080;51.750;5.888;2022-10-16T12:28:27;6.70;;;1.85;;
32319;SDS011;19080;51.750;5.888;2022-10-16T12:31:01;7.40;;;1.83;;
32319;SDS011;19080;51.750;5.888;2022-10-16T12:35:55;6.05;;;1.52;;
32319;SDS011;19080;51.750;5.888;2022-10-16T12:38:30;8.52;;;2.05;;
32319;SDS011;19080;51.750;5.888;2022-10-16T12:41:00;6.53;;;1.63;;
32319;SDS011;19080;51.750;5.888;2022-10-16T12:43:34;8.00;;;2.00;;
32319;SDS011;19080;51.750;5.888;2022-10-16T12:48:31;10.80;;;2.30;;
32319;SDS011;19080;51.750;5.888;2022-10-16T12:54:03;14.68;;;2.20;;
32319;SDS011;19080;51.750;5.888;2022-10-16T12:59:18;8.60;;;2.22;;
32319;SDS011;19080;51.750;5.888;2022-10-16T13:06:50;8.35;;;2.72;;
32319;SDS011;19080;51.750;5.888;2022-10-16T13:09:27;9.88;;;2.53;;
32319;SDS011;19080;51.750;5.888;2022-10-16T13:12:12;7.47;;;2.20;;
32319;SDS011;19080;51.750;5.888;2022-10-16T13:15:44;7.53;;;1.73;;
32319;SDS011;19080;51.750;5.888;2022-10-16T13:17:40;8.75;;;2.40;;
32319;SDS011;19080;51.750;5.888;2022-10-16T13:23:02;6.75;;;2.53;;
32319;SDS011;19080;51.750;5.888;2022-10-16T13:28:09;6.25;;;1.73;;
32319;SDS011;19080;51.750;5.888;2022-10-16T13:30:40;6.32;;;1.55;;
32319;SDS011;19080;51.750;5.888;2022-10-16T13:33:12;8.07;;;2.13;;
32319;SDS011;19080;51.750;5.888;2022-10-16T13:35:46;6.63;;;1.80;;
32319;SDS011;19080;51.750;5.888;2022-10-16T13:38:14;7.38;;;1.80;;
32319;SDS011;19080;51.750;5.888;2022-10-16T13:43:20;5.72;;;1.67;;
32319;SDS011;19080;51.750;5.888;2022-10-16T13:45:54;10.13;;;1.95;;
32319;SDS011;19080;51.750;5.888;2022-10-16T13:48:21;5.68;;;1.75;;
32319;SDS011;19080;51.750;5.888;2022-10-16T13:50:57;7.93;;;1.70;;
32319;SDS011;19080;51.750;5.888;2022-10-16T13:53:24;4.35;;;1.30;;
32319;SDS011;19080;51.750;5.888;2022-10-16T13:55:50;6.60;;;1.80;;
32319;SDS011;19080;51.750;5.888;2022-10-16T13:58:17;8.02;;;1.90;;
32319;SDS011;19080;51.750;5.888;2022-10-16T14:03:22;6.70;;;1.70;;
32319;SDS011;19080;51.750;5.888;2022-10-16T14:05:49;12.55;;;7.25;;
32319;SDS011;19080;51.750;5.888;2022-10-16T14:08:16;9.35;;;3.92;;
32319;SDS011;19080;51.750;5.888;2022-10-16T14:10:42;6.90;;;2.17;;
32319;SDS011;19080;51.750;5.888;2022-10-16T14:13:14;5.95;;;1.80;;
32319;SDS011;19080;51.750;5.888;2022-10-16T14:15:45;6.15;;;1.40;;
32319;SDS011;19080;51.750;5.888;2022-10-16T14:18:20;5.30;;;1.60;;
32319;SDS011;19080;51.750;5.888;2022-10-16T14:20:47;6.32;;;1.60;;
32319;SDS011;19080;51.750;5.888;2022-10-16T14:23:28;8.45;;;1.85;;
32319;SDS011;19080;51.750;5.888;2022-10-16T14:28:37;7.18;;;1.92;;
32319;SDS011;19080;51.750;5.888;2022-10-16T14:31:19;5.25;;;1.27;;
32319;SDS011;19080;51.750;5.888;2022-10-16T14:33:49;6.18;;;1.70;;
32319;SDS011;19080;51.750;5.888;2022-10-16T14:36:15;4.35;;;1.55;;
32319;SDS011;19080;51.750;5.888;2022-10-16T14:39:03;9.77;;;1.80;;
32319;SDS011;19080;51.750;5.888;2022-10-16T14:41:31;5.43;;;1.50;;
32319;SDS011;19080;51.750;5.888;2022-10-16T14:44:03;5.32;;;1.88;;
32319;SDS011;19080;51.750;5.888;2022-10-16T14:46:33;5.53;;;3.25;;
32319;SDS011;19080;51.750;5.888;2022-10-16T14:49:02;6.95;;;2.85;;
32319;SDS011;19080;51.750;5.888;2022-10-16T14:51:30;6.38;;;2.50;;
32319;SDS011;19080;51.750;5.888;2022-10-16T14:53:56;6.90;;;3.70;;
32319;SDS011;19080;51.750;5.888;2022-10-16T14:56:27;6.40;;;3.30;;
32319;SDS011;19080;51.750;5.888;2022-10-16T14:58:57;8.98;;;3.30;;
32319;SDS011;19080;51.750;5.888;2022-10-16T15:01:23;6.25;;;2.65;;
32319;SDS011;19080;51.750;5.888;2022-10-16T15:03:52;9.02;;;1.92;;
32319;SDS011;19080;51.750;5.888;2022-10-16T15:06:20;5.95;;;2.10;;
32319;SDS011;19080;51.750;5.888;2022-10-16T15:08:48;7.25;;;3.35;;
32319;SDS011;19080;51.750;5.888;2022-10-16T15:11:15;4.97;;;2.08;;
32319;SDS011;19080;51.750;5.888;2022-10-16T15:13:43;7.70;;;2.50;;
32319;SDS011;19080;51.750;5.888;2022-10-16T15:16:16;8.18;;;3.28;;
32319;SDS011;19080;51.750;5.888;2022-10-16T15:18:42;9.25;;;6.97;;
32319;SDS011;19080;51.750;5.888;2022-10-16T15:21:22;10.18;;;6.05;;
32319;SDS011;19080;51.750;5.888;2022-10-16T15:23:50;11.43;;;6.20;;
32319;SDS011;19080;51.750;5.888;2022-10-16T15:26:19;9.40;;;3.70;;
32319;SDS011;19080;51.750;5.888;2022-10-16T15:28:46;8.68;;;3.17;;
32319;SDS011;19080;51.750;5.888;2022-10-16T15:31:12;5.93;;;3.03;;
32319;SDS011;19080;51.750;5.888;2022-10-16T15:33:38;10.27;;;4.93;;
32319;SDS011;19080;51.750;5.888;2022-10-16T15:36:05;10.55;;;5.53;;
32319;SDS011;19080;51.750;5.888;2022-10-16T15:38:32;7.45;;;4.88;;
32319;SDS011;19080;51.750;5.888;2022-10-16T15:40:58;9.48;;;4.00;;
32319;SDS011;19080;51.750;5.888;2022-10-16T15:43:25;6.68;;;3.70;;
32319;SDS011;19080;51.750;5.888;2022-10-16T15:45:58;7.22;;;3.80;;
32319;SDS011;19080;51.750;5.888;2022-10-16T15:48:24;6.10;;;2.50;;
32319;SDS011;19080;51.750;5.888;2022-10-16T15:50:51;9.00;;;2.25;;
32319;SDS011;19080;51.750;5.888;2022-10-16T15:53:17;5.78;;;1.70;;
32319;SDS011;19080;51.750;5.888;2022-10-16T15:55:44;6.63;;;1.77;;
32319;SDS011;19080;51.750;5.888;2022-10-16T15:58:10;7.80;;;3.00;;
32319;SDS011;19080;51.750;5.888;2022-10-16T16:00:36;8.93;;;3.60;;
32319;SDS011;19080;51.750;5.888;2022-10-16T16:03:03;5.57;;;2.95;;
32319;SDS011;19080;51.750;5.888;2022-10-16T16:05:30;7.30;;;2.45;;
32319;SDS011;19080;51.750;5.888;2022-10-16T16:07:56;9.50;;;3.00;;
32319;SDS011;19080;51.750;5.888;2022-10-16T16:10:23;6.35;;;3.53;;
32319;SDS011;19080;51.750;5.888;2022-10-16T16:12:49;8.52;;;4.07;;
32319;SDS011;19080;51.750;5.888;2022-10-16T16:15:21;20.60;;;11.40;;
32319;SDS011;19080;51.750;5.888;2022-10-16T16:17:48;12.75;;;5.32;;
32319;SDS011;19080;51.750;5.888;2022-10-16T16:20:15;5.93;;;2.90;;
32319;SDS011;19080;51.750;5.888;2022-10-16T16:22:41;10.80;;;4.15;;
32319;SDS011;19080;51.750;5.888;2022-10-16T16:25:08;11.73;;;5.03;;
32319;SDS011;19080;51.750;5.888;2022-10-16T16:27:34;10.30;;;5.32;;
32319;SDS011;19080;51.750;5.888;2022-10-16T16:30:01;9.98;;;7.45;;
32319;SDS011;19080;51.750;5.888;2022-10-16T16:32:29;25.70;;;17.50;;
32319;SDS011;19080;51.750;5.888;2022-10-16T16:34:55;13.88;;;8.45;;